< Cyclone 201926 2020 Season Cyclone 202102 >
Cyclone 202012 (Harold)
General InformationDetailed Track InformationTrack Information on Google Maps || ResourceGoogle EarthGE AnimationAtom FeedGeoJSON
Detalied Best Track Wind (Time Zone = UTC)
Year Month Day Hour Lat. Long. Wind (kt) Gust (kt) Direc. of Major Storm Axis Radius of Major Storm Axis (nm) Radius of Minor Storm Axis (nm) Direc. of Major Gale Axis Radius of Major Gale Axis (nm) Radius of Minor Gale Axis (nm) Image
2020 4 1 00 -8.7 154.7 15 45 symmetric - - symmetric - - Image
2020 4 1 06 -8.9 155.0 15 45 symmetric - - symmetric - - Image
2020 4 1 12 -8.9 155.4 25 45 symmetric - - symmetric - - Image
2020 4 1 18 -9.1 155.9 30 45 symmetric - - symmetric - - Image
2020 4 2 00 -9.3 156.4 30 45 symmetric - - symmetric - - Image
2020 4 2 06 -9.7 156.8 35 50 symmetric - - symmetric - - Image
2020 4 2 12 -9.9 157.8 35 50 symmetric - - symmetric - - Image
2020 4 2 18 -10.1 159.0 35 50 symmetric - - symmetric - - Image
2020 4 3 00 -10.6 161.5 35 50 symmetric - - symmetric - - Image
2020 4 3 06 -11.8 162.2 45 65 symmetric - - symmetric - - Image
2020 4 3 12 -12.6 163.0 50 70 symmetric - - symmetric - - Image
2020 4 3 18 -13.5 164.0 65 90 symmetric - - symmetric - - Image
2020 4 4 00 -13.8 164.2 80 110 symmetric - - symmetric - - Image
2020 4 4 06 -14.2 164.9 100 140 symmetric - - symmetric - - Image
2020 4 4 12 -14.5 165.3 100 140 symmetric - - symmetric - - Image
2020 4 4 18 -14.9 165.8 95 135 symmetric - - symmetric - - Image
2020 4 5 00 -15.5 165.7 90 125 symmetric - - symmetric - - Image
2020 4 5 06 -15.5 165.5 90 125 symmetric - - symmetric - - Image
2020 4 5 12 -15.3 165.6 95 135 symmetric - - symmetric - - Image
2020 4 5 18 -15.4 166.2 110 155 symmetric - - symmetric - - Image
2020 4 6 00 -15.5 166.9 110 155 symmetric - - symmetric - - Image
2020 4 6 06 -15.7 167.8 115 160 symmetric - - symmetric - - Image
2020 4 6 12 -15.9 168.8 125 175 symmetric - - symmetric - - Image
2020 4 6 18 -16.3 169.6 120 170 symmetric - - symmetric - - Image
2020 4 7 00 -16.5 171.2 110 155 symmetric - - symmetric - - Image
2020 4 7 06 -17.0 172.3 100 140 symmetric - - symmetric - - Image
2020 4 7 12 -17.2 174.0 95 135 symmetric - - symmetric - - Image
2020 4 7 18 -17.7 175.8 90 125 symmetric - - symmetric - - Image
2020 4 8 00 -18.8 177.9 95 135 symmetric - - symmetric - - Image
2020 4 8 06 -19.6 180.0 95 135 symmetric - - symmetric - - Image
2020 4 8 12 -20.5 182.1 105 145 symmetric - - symmetric - - Image
2020 4 8 18 -22.0 184.7 100 140 symmetric - - symmetric - - Image
2020 4 9 00 -23.1 186.9 105 145 symmetric - - symmetric - - Image
2020 4 9 06 -24.6 190.2 100 140 symmetric - - symmetric - - Image
2020 4 9 12 -25.8 192.5 80 110 symmetric - - symmetric - - Image
2020 4 9 18 -27.3 195.5 70 100 symmetric - - symmetric - - Image
2020 4 10 00 -29.2 198.7 60 85 symmetric - - symmetric - - Image
2020 4 10 06 -30.9 202.1 50 70 symmetric - - symmetric - - Image
2020 4 10 12 -32.9 206.1 50 70 symmetric - - symmetric - - Image
2020 4 10 18 -33.9 209.1 35 50 symmetric - - symmetric - - Image
2020 4 11 00 -34.9 212.1 35 50 symmetric - - symmetric - - Image
< Cyclone 201926 2020 Season Cyclone 202102 >

Help